sensor_id;sensor_type;location;lat;lon;timestamp;P1;durP1;ratioP1;P2;durP2;ratioP2
60430;SDS011;46285;45.122;20.726;2023-02-01T00:00:22;27.35;;;16.70;;
60430;SDS011;46285;45.122;20.726;2023-02-01T00:10:23;33.88;;;19.25;;
60430;SDS011;46285;45.122;20.726;2023-02-01T00:20:24;23.88;;;13.88;;
60430;SDS011;46285;45.122;20.726;2023-02-01T00:30:26;22.48;;;12.57;;
60430;SDS011;46285;45.122;20.726;2023-02-01T00:40:29;19.25;;;12.10;;
60430;SDS011;46285;45.122;20.726;2023-02-01T00:50:30;16.75;;;11.77;;
60430;SDS011;46285;45.122;20.726;2023-02-01T01:00:34;33.35;;;15.95;;
60430;SDS011;46285;45.122;20.726;2023-02-01T01:10:35;37.83;;;18.35;;
60430;SDS011;46285;45.122;20.726;2023-02-01T01:20:37;23.13;;;10.75;;
60430;SDS011;46285;45.122;20.726;2023-02-01T01:30:38;24.33;;;10.48;;
60430;SDS011;46285;45.122;20.726;2023-02-01T01:40:39;17.67;;;9.80;;
60430;SDS011;46285;45.122;20.726;2023-02-01T01:50:55;18.87;;;10.07;;
60430;SDS011;46285;45.122;20.726;2023-02-01T02:00:58;24.73;;;12.60;;
60430;SDS011;46285;45.122;20.726;2023-02-01T02:11:00;21.15;;;11.75;;
60430;SDS011;46285;45.122;20.726;2023-02-01T02:41:32;21.30;;;11.02;;
60430;SDS011;46285;45.122;20.726;2023-02-01T02:51:50;25.23;;;13.03;;
60430;SDS011;46285;45.122;20.726;2023-02-01T03:01:54;21.67;;;12.30;;
60430;SDS011;46285;45.122;20.726;2023-02-01T03:11:56;22.10;;;12.52;;
60430;SDS011;46285;45.122;20.726;2023-02-01T03:22:01;19.15;;;11.15;;
60430;SDS011;46285;45.122;20.726;2023-02-01T03:32:05;20.43;;;11.40;;
60430;SDS011;46285;45.122;20.726;2023-02-01T03:42:14;24.83;;;18.95;;
60430;SDS011;46285;45.122;20.726;2023-02-01T03:52:18;17.80;;;10.50;;
60430;SDS011;46285;45.122;20.726;2023-02-01T04:02:21;19.92;;;12.02;;
60430;SDS011;46285;45.122;20.726;2023-02-01T04:12:23;17.38;;;9.82;;
60430;SDS011;46285;45.122;20.726;2023-02-01T04:22:24;17.77;;;10.32;;
60430;SDS011;46285;45.122;20.726;2023-02-01T04:32:25;21.50;;;12.40;;
60430;SDS011;46285;45.122;20.726;2023-02-01T04:42:26;24.63;;;13.73;;
60430;SDS011;46285;45.122;20.726;2023-02-01T04:52:28;22.73;;;14.02;;
60430;SDS011;46285;45.122;20.726;2023-02-01T05:02:29;26.23;;;14.18;;
60430;SDS011;46285;45.122;20.726;2023-02-01T05:12:30;22.13;;;15.02;;
60430;SDS011;46285;45.122;20.726;2023-02-01T05:22:31;28.52;;;16.52;;
60430;SDS011;46285;45.122;20.726;2023-02-01T05:32:32;27.90;;;16.65;;
60430;SDS011;46285;45.122;20.726;2023-02-01T05:42:33;35.00;;;19.88;;
60430;SDS011;46285;45.122;20.726;2023-02-01T05:52:34;41.22;;;26.98;;
60430;SDS011;46285;45.122;20.726;2023-02-01T06:02:36;41.83;;;26.70;;
60430;SDS011;46285;45.122;20.726;2023-02-01T06:12:37;37.35;;;22.02;;
60430;SDS011;46285;45.122;20.726;2023-02-01T06:22:38;37.55;;;25.75;;
60430;SDS011;46285;45.122;20.726;2023-02-01T06:32:40;36.85;;;22.60;;
60430;SDS011;46285;45.122;20.726;2023-02-01T06:42:41;45.65;;;24.38;;
60430;SDS011;46285;45.122;20.726;2023-02-01T06:52:42;35.88;;;23.10;;
60430;SDS011;46285;45.122;20.726;2023-02-01T07:02:43;38.80;;;28.10;;
60430;SDS011;46285;45.122;20.726;2023-02-01T07:12:44;29.08;;;18.65;;
60430;SDS011;46285;45.122;20.726;2023-02-01T07:22:45;41.33;;;25.38;;
60430;SDS011;46285;45.122;20.726;2023-02-01T07:32:47;35.65;;;21.50;;
60430;SDS011;46285;45.122;20.726;2023-02-01T07:42:48;32.38;;;19.88;;
60430;SDS011;46285;45.122;20.726;2023-02-01T07:52:49;43.22;;;31.15;;
60430;SDS011;46285;45.122;20.726;2023-02-01T08:02:50;52.65;;;31.60;;
60430;SDS011;46285;45.122;20.726;2023-02-01T08:12:51;40.88;;;22.70;;
60430;SDS011;46285;45.122;20.726;2023-02-01T08:22:53;30.98;;;18.88;;
60430;SDS011;46285;45.122;20.726;2023-02-01T08:32:54;18.85;;;11.98;;
60430;SDS011;46285;45.122;20.726;2023-02-01T08:42:56;27.85;;;14.23;;
60430;SDS011;46285;45.122;20.726;2023-02-01T08:52:57;29.33;;;17.05;;
60430;SDS011;46285;45.122;20.726;2023-02-01T09:02:58;27.20;;;14.55;;
60430;SDS011;46285;45.122;20.726;2023-02-01T09:13:00;18.98;;;11.20;;
60430;SDS011;46285;45.122;20.726;2023-02-01T09:23:01;144.20;;;79.82;;
60430;SDS011;46285;45.122;20.726;2023-02-01T09:33:02;535.90;;;337.83;;
60430;SDS011;46285;45.122;20.726;2023-02-01T09:53:05;61.10;;;39.78;;
60430;SDS011;46285;45.122;20.726;2023-02-01T10:03:11;75.70;;;43.45;;
60430;SDS011;46285;45.122;20.726;2023-02-01T10:33:25;29.63;;;15.20;;
60430;SDS011;46285;45.122;20.726;2023-02-01T10:53:31;41.20;;;17.88;;
60430;SDS011;46285;45.122;20.726;2023-02-01T11:03:39;13.27;;;7.68;;
60430;SDS011;46285;45.122;20.726;2023-02-01T11:13:40;28.48;;;15.38;;
60430;SDS011;46285;45.122;20.726;2023-02-01T11:23:42;84.22;;;50.83;;
60430;SDS011;46285;45.122;20.726;2023-02-01T11:33:49;101.70;;;53.67;;
60430;SDS011;46285;45.122;20.726;2023-02-01T11:43:55;72.95;;;45.60;;
60430;SDS011;46285;45.122;20.726;2023-02-01T12:04:15;26.40;;;12.30;;
60430;SDS011;46285;45.122;20.726;2023-02-01T12:24:49;52.85;;;21.55;;
60430;SDS011;46285;45.122;20.726;2023-02-01T12:35:13;78.85;;;43.20;;
60430;SDS011;46285;45.122;20.726;2023-02-01T12:45:25;51.63;;;31.17;;
60430;SDS011;46285;45.122;20.726;2023-02-01T12:55:32;46.08;;;20.80;;
60430;SDS011;46285;45.122;20.726;2023-02-01T13:05:55;81.35;;;45.60;;
60430;SDS011;46285;45.122;20.726;2023-02-01T13:15:57;59.28;;;35.60;;
60430;SDS011;46285;45.122;20.726;2023-02-01T13:25:59;35.40;;;20.52;;
60430;SDS011;46285;45.122;20.726;2023-02-01T13:46:22;38.83;;;21.75;;
60430;SDS011;46285;45.122;20.726;2023-02-01T13:56:23;44.15;;;23.45;;
60430;SDS011;46285;45.122;20.726;2023-02-01T14:16:27;69.43;;;35.90;;
60430;SDS011;46285;45.122;20.726;2023-02-01T14:36:57;224.65;;;126.68;;
60430;SDS011;46285;45.122;20.726;2023-02-01T14:57:04;92.30;;;52.75;;
60430;SDS011;46285;45.122;20.726;2023-02-01T15:07:07;54.95;;;33.70;;
60430;SDS011;46285;45.122;20.726;2023-02-01T15:17:22;58.38;;;30.15;;
60430;SDS011;46285;45.122;20.726;2023-02-01T15:27:24;81.55;;;51.20;;
60430;SDS011;46285;45.122;20.726;2023-02-01T15:37:26;130.63;;;77.10;;
60430;SDS011;46285;45.122;20.726;2023-02-01T15:47:28;131.65;;;77.28;;
60430;SDS011;46285;45.122;20.726;2023-02-01T15:57:32;209.27;;;116.18;;
60430;SDS011;46285;45.122;20.726;2023-02-01T16:07:34;374.50;;;195.63;;
60430;SDS011;46285;45.122;20.726;2023-02-01T16:17:35;594.30;;;306.00;;
60430;SDS011;46285;45.122;20.726;2023-02-01T16:27:36;279.38;;;156.88;;
60430;SDS011;46285;45.122;20.726;2023-02-01T16:37:37;385.25;;;191.57;;
60430;SDS011;46285;45.122;20.726;2023-02-01T16:47:39;385.88;;;175.13;;
60430;SDS011;46285;45.122;20.726;2023-02-01T16:57:43;235.82;;;126.32;;
60430;SDS011;46285;45.122;20.726;2023-02-01T17:07:45;312.73;;;178.35;;
60430;SDS011;46285;45.122;20.726;2023-02-01T17:17:47;262.40;;;146.65;;
60430;SDS011;46285;45.122;20.726;2023-02-01T17:27:48;113.78;;;58.47;;
60430;SDS011;46285;45.122;20.726;2023-02-01T17:37:49;122.70;;;62.28;;
60430;SDS011;46285;45.122;20.726;2023-02-01T17:47:51;41.30;;;22.20;;
60430;SDS011;46285;45.122;20.726;2023-02-01T17:57:52;179.25;;;81.38;;
60430;SDS011;46285;45.122;20.726;2023-02-01T18:07:53;122.97;;;67.88;;
60430;SDS011;46285;45.122;20.726;2023-02-01T18:17:54;43.10;;;24.13;;
60430;SDS011;46285;45.122;20.726;2023-02-01T18:27:55;38.15;;;23.20;;
60430;SDS011;46285;45.122;20.726;2023-02-01T18:37:57;173.95;;;92.32;;
60430;SDS011;46285;45.122;20.726;2023-02-01T18:47:58;53.92;;;34.28;;
60430;SDS011;46285;45.122;20.726;2023-02-01T18:58:00;127.68;;;69.53;;
60430;SDS011;46285;45.122;20.726;2023-02-01T19:08:03;62.78;;;36.72;;
60430;SDS011;46285;45.122;20.726;2023-02-01T19:18:04;56.15;;;22.40;;
60430;SDS011;46285;45.122;20.726;2023-02-01T19:28:05;26.00;;;13.30;;
60430;SDS011;46285;45.122;20.726;2023-02-01T19:38:07;18.58;;;10.10;;
60430;SDS011;46285;45.122;20.726;2023-02-01T19:48:08;23.58;;;14.95;;
60430;SDS011;46285;45.122;20.726;2023-02-01T19:58:10;64.53;;;34.95;;
60430;SDS011;46285;45.122;20.726;2023-02-01T20:08:11;57.97;;;32.60;;
60430;SDS011;46285;45.122;20.726;2023-02-01T20:18:12;36.83;;;22.58;;
60430;SDS011;46285;45.122;20.726;2023-02-01T20:28:13;61.55;;;38.40;;
60430;SDS011;46285;45.122;20.726;2023-02-01T20:38:14;94.07;;;53.15;;
60430;SDS011;46285;45.122;20.726;2023-02-01T20:48:15;68.60;;;40.22;;
60430;SDS011;46285;45.122;20.726;2023-02-01T20:58:17;33.60;;;21.23;;
60430;SDS011;46285;45.122;20.726;2023-02-01T21:08:18;24.67;;;15.63;;
60430;SDS011;46285;45.122;20.726;2023-02-01T21:18:19;23.65;;;15.35;;
60430;SDS011;46285;45.122;20.726;2023-02-01T21:28:20;33.50;;;19.85;;
60430;SDS011;46285;45.122;20.726;2023-02-01T21:38:22;70.13;;;43.38;;
60430;SDS011;46285;45.122;20.726;2023-02-01T21:48:23;45.28;;;28.58;;
60430;SDS011;46285;45.122;20.726;2023-02-01T21:58:24;35.47;;;19.67;;
60430;SDS011;46285;45.122;20.726;2023-02-01T22:08:26;34.97;;;20.85;;
60430;SDS011;46285;45.122;20.726;2023-02-01T22:18:27;28.92;;;17.98;;
60430;SDS011;46285;45.122;20.726;2023-02-01T22:28:28;25.25;;;15.63;;
60430;SDS011;46285;45.122;20.726;2023-02-01T22:38:33;24.55;;;14.50;;
60430;SDS011;46285;45.122;20.726;2023-02-01T22:48:35;40.53;;;24.95;;
60430;SDS011;46285;45.122;20.726;2023-02-01T22:58:36;34.92;;;18.38;;
60430;SDS011;46285;45.122;20.726;2023-02-01T23:08:37;44.75;;;22.65;;
60430;SDS011;46285;45.122;20.726;2023-02-01T23:18:39;48.00;;;27.27;;
60430;SDS011;46285;45.122;20.726;2023-02-01T23:28:41;39.20;;;23.52;;
60430;SDS011;46285;45.122;20.726;2023-02-01T23:38:43;25.15;;;15.60;;
60430;SDS011;46285;45.122;20.726;2023-02-01T23:48:44;26.55;;;14.95;;
60430;SDS011;46285;45.122;20.726;2023-02-01T23:58:46;28.38;;;15.73;;
